createdAt,value
2023-04-21T00:01:29.642Z,33.95
2023-04-21T00:03:56.996Z,28.35
2023-04-21T00:06:24.311Z,29.10
2023-04-21T00:08:52.011Z,39.78
2023-04-21T00:11:19.365Z,29.30
2023-04-21T00:13:46.408Z,32.92
2023-04-21T00:16:14.033Z,33.50
2023-04-21T00:18:41.727Z,34.75
2023-04-21T00:21:09.312Z,35.47
2023-04-21T00:23:36.694Z,36.13
2023-04-21T00:26:03.767Z,39.75
2023-04-21T00:28:31.319Z,29.92
2023-04-21T00:30:59.115Z,31.33
2023-04-21T00:33:26.496Z,35.65
2023-04-21T00:35:57.019Z,37.25
2023-04-21T00:38:24.495Z,30.17
2023-04-21T00:40:51.881Z,34.53
2023-04-21T00:43:19.047Z,29.48
2023-04-21T00:45:47.058Z,32.00
2023-04-21T00:48:14.257Z,33.92
2023-04-21T00:50:41.905Z,30.83
2023-04-21T00:53:09.566Z,29.80
2023-04-21T00:55:36.624Z,23.27
2023-04-21T00:58:03.944Z,30.00
2023-04-21T01:00:31.758Z,27.15
2023-04-21T01:03:00.629Z,30.23
2023-04-21T01:05:27.722Z,34.78
2023-04-21T01:07:55.277Z,31.15
2023-04-21T01:10:23.857Z,28.80
2023-04-21T01:12:51.617Z,29.15
2023-04-21T01:15:19.379Z,29.02
2023-04-21T01:17:47.358Z,25.55
2023-04-21T01:20:14.544Z,22.42
2023-04-21T01:22:42.094Z,18.80
2023-04-21T01:25:09.605Z,18.88
2023-04-21T01:27:37.892Z,17.38
2023-04-21T01:30:07.179Z,18.38
2023-04-21T01:32:35.897Z,20.38
2023-04-21T01:35:03.478Z,20.05
2023-04-21T01:37:31.611Z,17.45
2023-04-21T01:40:01.043Z,17.63
2023-04-21T01:42:28.816Z,16.23
2023-04-21T01:44:58.633Z,18.05
2023-04-21T01:47:26.523Z,15.52
2023-04-21T01:49:53.564Z,13.55
2023-04-21T01:52:21.473Z,13.55
2023-04-21T01:54:49.377Z,12.13
2023-04-21T01:57:16.651Z,13.60
2023-04-21T01:59:44.552Z,11.10
2023-04-21T02:02:12.064Z,11.15
2023-04-21T02:04:39.200Z,11.98
2023-04-21T02:07:06.757Z,13.77
2023-04-21T02:09:34.224Z,12.65
2023-04-21T02:12:02.076Z,14.43
2023-04-21T02:14:29.453Z,16.75
2023-04-21T02:16:57.006Z,12.20
2023-04-21T02:19:24.418Z,11.05
2023-04-21T02:21:52.095Z,9.57
2023-04-21T02:24:22.071Z,13.10
2023-04-21T02:26:49.489Z,13.63
2023-04-21T02:29:17.009Z,15.32
2023-04-21T02:31:58.939Z,12.90
2023-04-21T02:34:30.744Z,15.13
2023-04-21T02:36:59.050Z,12.43
2023-04-21T02:39:26.422Z,14.82
2023-04-21T02:41:54.060Z,14.45
2023-04-21T02:44:21.433Z,11.32
2023-04-21T02:46:48.614Z,16.67
2023-04-21T02:49:16.127Z,12.55
2023-04-21T02:51:43.504Z,14.95
2023-04-21T02:54:10.821Z,12.82
2023-04-21T02:56:38.354Z,9.95
2023-04-21T02:59:06.843Z,9.68
2023-04-21T03:01:34.066Z,11.07
2023-04-21T03:04:01.350Z,11.93
2023-04-21T03:06:28.572Z,17.85
2023-04-21T03:08:56.381Z,15.70
2023-04-21T03:11:24.270Z,15.25
2023-04-21T03:13:53.577Z,9.45
2023-04-21T03:16:21.585Z,16.75
2023-04-21T03:18:48.706Z,10.43
2023-04-21T03:21:16.292Z,11.77
2023-04-21T03:23:43.703Z,12.50
2023-04-21T03:26:11.889Z,17.15
2023-04-21T03:28:39.108Z,14.43
2023-04-21T03:31:06.383Z,8.15
2023-04-21T03:33:34.139Z,10.75
2023-04-21T03:36:01.631Z,8.63
2023-04-21T03:38:30.962Z,12.80
2023-04-21T03:40:58.326Z,9.65
2023-04-21T03:43:25.594Z,9.52
2023-04-21T03:45:53.029Z,19.33
2023-04-21T03:48:20.416Z,11.65
2023-04-21T03:50:47.506Z,12.80
2023-04-21T03:53:14.909Z,11.02
2023-04-21T03:55:41.971Z,10.75
2023-04-21T03:58:09.384Z,8.27
2023-04-21T04:00:36.922Z,7.00
2023-04-21T04:03:04.400Z,8.38
2023-04-21T04:05:31.801Z,14.20
2023-04-21T04:07:59.370Z,9.32
2023-04-21T04:10:26.375Z,10.88
2023-04-21T04:12:55.051Z,10.05
2023-04-21T04:15:22.090Z,7.65
2023-04-21T04:17:50.119Z,9.43
2023-04-21T04:20:17.800Z,15.50
2023-04-21T04:22:45.295Z,9.38
2023-04-21T04:25:14.628Z,10.93
2023-04-21T04:27:41.733Z,11.85
2023-04-21T04:30:09.278Z,12.35
2023-04-21T04:32:39.344Z,13.10
2023-04-21T04:35:07.044Z,16.90
2023-04-21T04:37:36.540Z,14.65
2023-04-21T04:40:06.338Z,10.30
2023-04-21T04:42:34.437Z,10.55
2023-04-21T04:45:01.800Z,8.15
2023-04-21T04:47:29.468Z,7.60
2023-04-21T04:49:56.556Z,8.93
2023-04-21T04:52:24.157Z,8.13
2023-04-21T04:54:51.546Z,21.95
2023-04-21T04:57:19.108Z,17.90
2023-04-21T04:59:47.043Z,8.25
2023-04-21T05:02:14.222Z,5.03
2023-04-21T05:04:41.521Z,8.70
2023-04-21T05:07:08.855Z,6.93
2023-04-21T05:09:36.349Z,7.60
2023-04-21T05:12:03.823Z,6.85
2023-04-21T05:14:31.234Z,10.90
2023-04-21T05:16:58.662Z,9.20
2023-04-21T05:19:26.072Z,12.23
2023-04-21T05:21:53.963Z,8.05
2023-04-21T05:24:24.105Z,4.40
2023-04-21T05:26:51.236Z,14.25
2023-04-21T05:29:18.658Z,11.30
2023-04-21T05:31:46.448Z,9.18
2023-04-21T05:34:13.699Z,9.38
2023-04-21T05:36:43.790Z,8.77
2023-04-21T05:39:11.242Z,11.25
2023-04-21T05:41:38.430Z,10.43
2023-04-21T05:44:05.987Z,13.68
2023-04-21T05:46:34.510Z,21.40
2023-04-21T05:49:04.695Z,13.63
2023-04-21T05:51:32.386Z,29.77
2023-04-21T05:53:59.892Z,27.70
2023-04-21T05:56:27.413Z,14.65
2023-04-21T05:58:54.858Z,7.72
2023-04-21T06:01:22.307Z,9.80
2023-04-21T06:03:50.366Z,8.35
2023-04-21T06:06:17.903Z,7.63
2023-04-21T06:08:45.707Z,9.88
2023-04-21T06:11:16.032Z,12.07
2023-04-21T06:13:43.759Z,12.45
2023-04-21T06:16:11.149Z,10.88
2023-04-21T06:18:38.473Z,10.35
2023-04-21T06:21:05.770Z,8.98
2023-04-21T06:23:32.956Z,17.35
2023-04-21T06:26:05.519Z,9.23
2023-04-21T06:28:33.748Z,10.10
2023-04-21T06:31:01.574Z,8.38
2023-04-21T06:33:29.472Z,9.00
2023-04-21T06:35:56.646Z,7.38
2023-04-21T06:38:23.754Z,6.63
2023-04-21T06:40:51.047Z,9.35
2023-04-21T06:43:18.200Z,9.50
2023-04-21T06:45:45.592Z,15.43
2023-04-21T06:48:13.212Z,20.52
2023-04-21T06:50:40.802Z,12.75
2023-04-21T06:53:09.608Z,11.93
2023-04-21T06:55:36.697Z,15.50
2023-04-21T06:58:04.337Z,18.25
2023-04-21T07:00:31.393Z,12.15
2023-04-21T07:02:58.881Z,12.60
2023-04-21T07:05:26.123Z,12.80
2023-04-21T07:07:55.684Z,9.23
2023-04-21T07:10:23.633Z,13.90
2023-04-21T07:12:50.696Z,18.70
2023-04-21T07:15:17.938Z,13.57
2023-04-21T07:17:45.111Z,24.95
2023-04-21T07:20:12.877Z,16.55
2023-04-21T07:22:40.478Z,11.25
2023-04-21T07:25:08.207Z,8.75
2023-04-21T07:27:38.613Z,11.57
2023-04-21T07:30:06.736Z,10.35
2023-04-21T07:32:34.515Z,7.50
2023-04-21T07:35:02.413Z,9.98
2023-04-21T07:37:29.650Z,16.15
2023-04-21T07:39:56.855Z,24.23
2023-04-21T07:42:24.134Z,16.80
2023-04-21T07:44:51.379Z,10.38
2023-04-21T07:47:18.718Z,16.02
2023-04-21T07:49:45.975Z,13.98
2023-04-21T07:52:13.183Z,17.10
2023-04-21T07:54:40.255Z,7.47
2023-04-21T07:57:08.000Z,14.40
2023-04-21T07:59:35.526Z,20.02
2023-04-21T08:02:02.967Z,9.05
2023-04-21T08:04:30.873Z,18.35
2023-04-21T08:06:59.120Z,16.85
2023-04-21T08:09:26.969Z,19.65
2023-04-21T08:11:55.302Z,12.13
2023-04-21T08:14:22.547Z,15.48
2023-04-21T08:16:49.962Z,13.32
2023-04-21T08:19:17.604Z,8.40
2023-04-21T08:21:44.807Z,18.92
2023-04-21T08:24:12.575Z,11.80
2023-04-21T08:26:40.108Z,12.70
2023-04-21T08:29:09.885Z,15.25
2023-04-21T08:31:37.195Z,24.60
2023-04-21T08:34:04.680Z,25.80
2023-04-21T08:36:32.023Z,18.80
2023-04-21T08:38:59.612Z,18.73
2023-04-21T08:41:26.914Z,14.00
2023-04-21T08:43:54.031Z,20.33
2023-04-21T08:46:21.401Z,17.13
2023-04-21T08:48:48.581Z,7.18
2023-04-21T08:51:21.461Z,9.75
2023-04-21T08:53:48.833Z,11.18
2023-04-21T08:56:16.166Z,11.88
2023-04-21T08:58:44.019Z,14.57
2023-04-21T09:01:11.863Z,12.57
2023-04-21T09:03:39.517Z,27.77
2023-04-21T09:06:08.716Z,22.15
2023-04-21T09:08:39.537Z,12.48
2023-04-21T09:11:07.223Z,13.88
2023-04-21T09:13:35.526Z,13.27
2023-04-21T09:16:18.175Z,12.85
2023-04-21T09:18:46.032Z,14.60
2023-04-21T09:21:17.573Z,18.38
2023-04-21T09:23:44.651Z,16.90
2023-04-21T09:26:12.072Z,13.32
2023-04-21T09:28:46.884Z,13.27
2023-04-21T09:31:19.749Z,13.65
2023-04-21T09:33:57.928Z,19.83
2023-04-21T09:36:28.487Z,19.02
2023-04-21T09:39:20.597Z,18.42
2023-04-21T09:41:44.759Z,13.13
2023-04-21T09:44:12.285Z,15.85
2023-04-21T09:46:39.469Z,12.32
2023-04-21T09:49:07.098Z,10.52
2023-04-21T09:51:55.556Z,7.30
2023-04-21T09:56:53.863Z,15.27
2023-04-21T09:59:24.816Z,12.45
2023-04-21T10:01:52.550Z,11.20
2023-04-21T10:04:20.461Z,9.07
2023-04-21T10:06:48.610Z,19.13
2023-04-21T10:09:16.402Z,25.33
2023-04-21T10:11:44.206Z,18.15
2023-04-21T10:14:11.577Z,26.70
2023-04-21T10:16:39.073Z,22.02
2023-04-21T10:19:26.113Z,14.57
2023-04-21T10:21:56.972Z,10.77
2023-04-21T10:24:24.080Z,11.43
2023-04-21T10:26:54.062Z,16.13
2023-04-21T10:29:56.156Z,20.42
2023-04-21T10:32:43.355Z,17.42
2023-04-21T10:35:11.924Z,20.98
2023-04-21T10:37:41.130Z,17.63
2023-04-21T10:40:43.205Z,23.35
2023-04-21T10:43:47.210Z,22.02
2023-04-21T10:46:35.789Z,18.52
2023-04-21T10:49:10.349Z,16.95
2023-04-21T10:51:59.649Z,14.15
2023-04-21T10:54:27.716Z,38.42
2023-04-21T10:56:55.728Z,32.72
2023-04-21T10:59:23.961Z,22.75
2023-04-21T11:01:51.415Z,24.20
2023-04-21T11:04:20.488Z,12.68
2023-04-21T11:07:16.737Z,13.05
2023-04-21T11:09:45.785Z,15.02
2023-04-21T11:12:15.477Z,13.13
2023-04-21T11:14:43.769Z,14.52
2023-04-21T11:17:12.216Z,22.25
2023-04-21T11:19:39.576Z,15.27
2023-04-21T11:22:10.056Z,21.17
2023-04-21T11:24:37.709Z,13.00
2023-04-21T11:27:08.471Z,17.58
2023-04-21T11:29:36.195Z,24.92
2023-04-21T11:32:08.282Z,34.17
2023-04-21T11:34:39.253Z,13.25
2023-04-21T11:37:16.543Z,15.48
2023-04-21T11:39:44.377Z,15.00
2023-04-21T11:42:11.836Z,28.95
2023-04-21T11:44:43.116Z,21.27
2023-04-21T11:47:17.831Z,29.30
2023-04-21T11:50:04.205Z,31.27
2023-04-21T11:52:33.368Z,20.92
2023-04-21T11:55:05.376Z,27.42
2023-04-21T11:57:33.273Z,24.05
2023-04-21T12:00:01.960Z,26.73
2023-04-21T12:02:33.475Z,24.35
2023-04-21T12:05:02.219Z,30.85
2023-04-21T12:07:33.976Z,22.77
2023-04-21T12:10:02.479Z,26.08
2023-04-21T12:12:29.704Z,23.73
2023-04-21T12:14:57.051Z,19.77
2023-04-21T12:17:24.479Z,21.08
2023-04-21T12:19:51.661Z,22.95
2023-04-21T12:22:19.000Z,22.02
2023-04-21T12:24:46.521Z,25.10
2023-04-21T12:27:13.976Z,22.67
2023-04-21T12:29:44.116Z,27.65
2023-04-21T12:32:11.736Z,29.25
2023-04-21T12:34:39.118Z,31.17
2023-04-21T12:37:07.419Z,24.88
2023-04-21T12:39:34.922Z,40.08
2023-04-21T12:42:02.246Z,41.22
2023-04-21T12:44:29.809Z,26.50
2023-04-21T12:46:57.358Z,31.40
2023-04-21T12:49:25.470Z,30.67
2023-04-21T12:51:52.897Z,26.40
2023-04-21T12:54:20.290Z,43.78
2023-04-21T12:56:49.846Z,71.03
2023-04-21T12:59:16.898Z,47.33
2023-04-21T13:01:44.142Z,42.90
2023-04-21T13:04:11.546Z,38.47
2023-04-21T13:06:39.503Z,28.42
2023-04-21T13:09:09.262Z,27.13
2023-04-21T13:11:36.374Z,29.63
2023-04-21T13:14:06.519Z,53.70
2023-04-21T13:16:33.733Z,56.10
2023-04-21T13:19:01.146Z,62.58
2023-04-21T13:21:28.301Z,63.03
2023-04-21T13:23:57.414Z,114.10
2023-04-21T13:26:24.639Z,68.15
2023-04-21T13:28:52.077Z,45.83
2023-04-21T13:31:19.477Z,46.58
2023-04-21T13:33:46.807Z,37.33
2023-04-21T13:36:14.218Z,50.75
2023-04-21T13:38:41.838Z,82.38
2023-04-21T13:41:09.321Z,89.72
2023-04-21T13:43:36.695Z,102.32
2023-04-21T13:46:03.771Z,98.68
2023-04-21T13:48:31.302Z,95.15
2023-04-21T13:50:58.640Z,103.07
2023-04-21T13:53:26.648Z,123.78
2023-04-21T13:55:56.648Z,95.43
2023-04-21T13:58:23.986Z,66.47
2023-04-21T14:00:51.367Z,51.80
2023-04-21T14:03:19.064Z,49.55
2023-04-21T14:05:46.886Z,84.40
2023-04-21T14:08:14.201Z,33.80
2023-04-21T14:10:41.536Z,33.00
2023-04-21T14:13:12.826Z,52.17
2023-04-21T14:15:44.921Z,46.47
2023-04-21T14:18:13.319Z,37.80
2023-04-21T14:20:40.833Z,36.67
2023-04-21T14:23:08.147Z,55.83
2023-04-21T14:25:35.681Z,49.55
2023-04-21T14:28:06.992Z,89.45
2023-04-21T14:30:38.908Z,65.03
2023-04-21T14:33:06.412Z,29.45
2023-04-21T14:35:33.553Z,54.70
2023-04-21T14:38:01.076Z,52.08
2023-04-21T14:40:28.268Z,54.63
2023-04-21T14:42:57.768Z,54.65
2023-04-21T14:45:25.537Z,53.97
2023-04-21T14:47:53.449Z,63.25
2023-04-21T14:50:22.408Z,79.47
2023-04-21T14:52:49.873Z,105.13
2023-04-21T14:55:18.569Z,101.68
2023-04-21T14:57:47.028Z,114.47
2023-04-21T15:00:14.737Z,120.57
2023-04-21T15:02:42.287Z,127.60
2023-04-21T15:05:09.721Z,112.85
2023-04-21T15:07:37.104Z,120.93
2023-04-21T15:10:04.720Z,121.80
2023-04-21T15:12:32.697Z,127.03
2023-04-21T15:15:01.029Z,139.43
2023-04-21T15:17:28.468Z,120.90
2023-04-21T15:19:56.170Z,100.60
2023-04-21T15:22:23.503Z,86.70
2023-04-21T15:24:53.131Z,81.32
2023-04-21T15:27:21.709Z,94.20
2023-04-21T15:29:49.341Z,76.55
2023-04-21T15:32:16.291Z,93.43
2023-04-21T15:34:43.491Z,82.88
2023-04-21T15:37:14.218Z,83.57
2023-04-21T15:39:41.417Z,86.38
2023-04-21T15:42:09.280Z,77.43
2023-04-21T15:44:38.796Z,83.68
2023-04-21T15:47:06.652Z,66.63
2023-04-21T15:49:34.471Z,66.78
2023-04-21T15:52:03.635Z,66.82
2023-04-21T15:54:34.028Z,63.80
2023-04-21T15:57:05.120Z,55.53
2023-04-21T15:59:34.735Z,60.30
2023-04-21T16:02:02.419Z,56.78
2023-04-21T16:04:29.816Z,64.15
2023-04-21T16:06:57.231Z,66.55
2023-04-21T16:09:24.322Z,55.03
2023-04-21T16:11:51.853Z,62.03
2023-04-21T16:14:19.019Z,63.67
2023-04-21T16:16:46.719Z,63.25
2023-04-21T16:19:17.175Z,65.30
2023-04-21T16:21:44.373Z,68.50
2023-04-21T16:24:11.985Z,79.38
2023-04-21T16:26:39.216Z,74.68
2023-04-21T16:29:07.088Z,82.00
2023-04-21T16:31:34.530Z,82.80
2023-04-21T16:34:01.675Z,85.85
2023-04-21T16:36:30.806Z,86.78
2023-04-21T16:38:58.374Z,91.22
2023-04-21T16:41:25.941Z,90.75
2023-04-21T16:43:53.194Z,72.28
2023-04-21T16:46:20.847Z,77.32
2023-04-21T16:48:48.435Z,75.00
2023-04-21T16:51:15.502Z,72.80
2023-04-21T16:53:42.763Z,74.43
2023-04-21T16:56:10.098Z,72.75
2023-04-21T16:58:37.496Z,75.68
2023-04-21T17:01:07.114Z,81.45
2023-04-21T17:03:35.126Z,75.80
2023-04-21T17:06:09.227Z,78.25
2023-04-21T17:08:37.344Z,73.18
2023-04-21T17:11:04.990Z,68.90
2023-04-21T17:13:34.235Z,75.47
2023-04-21T17:16:01.602Z,75.38
2023-04-21T17:18:29.272Z,75.45
2023-04-21T17:20:56.705Z,77.65
2023-04-21T17:23:23.747Z,69.55
2023-04-21T17:25:51.525Z,70.47
2023-04-21T17:28:18.722Z,67.10
2023-04-21T17:30:46.795Z,69.43
2023-04-21T17:33:17.334Z,68.30
2023-04-21T17:35:59.920Z,68.80
2023-04-21T17:38:30.194Z,65.45
2023-04-21T17:40:57.241Z,60.35
2023-04-21T17:43:24.601Z,53.53
2023-04-21T17:45:52.159Z,58.17
2023-04-21T17:48:22.224Z,54.80
2023-04-21T17:50:49.432Z,54.80
2023-04-21T17:53:17.461Z,50.67
2023-04-21T17:55:45.328Z,52.92
2023-04-21T17:58:12.784Z,45.83
2023-04-21T18:00:40.533Z,50.22
2023-04-21T18:03:08.278Z,55.38
2023-04-21T18:05:35.428Z,49.28
2023-04-21T18:08:03.013Z,46.83
2023-04-21T18:10:30.248Z,45.45
2023-04-21T18:12:58.073Z,44.75
2023-04-21T18:15:25.440Z,46.22
2023-04-21T18:17:53.289Z,40.38
2023-04-21T18:20:20.810Z,41.67
2023-04-21T18:22:49.651Z,49.33
2023-04-21T18:25:27.301Z,49.58
2023-04-21T18:28:05.574Z,44.55
2023-04-21T18:30:33.145Z,48.15
2023-04-21T18:33:00.609Z,49.03
2023-04-21T18:35:28.177Z,64.13
2023-04-21T18:37:55.310Z,56.78
2023-04-21T18:40:22.635Z,65.65
2023-04-21T18:42:49.632Z,51.75
2023-04-21T18:45:17.091Z,63.25
2023-04-21T18:47:45.603Z,61.25
2023-04-21T18:50:13.495Z,56.40
2023-04-21T18:52:40.492Z,59.47
2023-04-21T18:55:08.743Z,58.83
2023-04-21T18:57:36.514Z,64.28
2023-04-21T19:00:06.629Z,60.97
2023-04-21T19:02:36.534Z,53.17
2023-04-21T19:05:04.898Z,56.35
2023-04-21T19:07:31.946Z,50.50
2023-04-21T19:09:59.338Z,47.88
2023-04-21T19:12:29.810Z,52.67
2023-04-21T19:14:57.121Z,38.88
2023-04-21T19:17:24.634Z,50.33
2023-04-21T19:19:51.725Z,48.33
2023-04-21T19:22:19.959Z,50.72
2023-04-21T19:24:47.338Z,43.67
2023-04-21T19:27:14.765Z,45.22
2023-04-21T19:29:42.647Z,55.20
2023-04-21T19:32:09.821Z,51.35
2023-04-21T19:34:37.383Z,53.80
2023-04-21T19:37:04.964Z,53.20
2023-04-21T19:39:32.564Z,53.28
2023-04-21T19:42:00.709Z,58.65
2023-04-21T19:44:28.156Z,57.38
2023-04-21T19:46:55.298Z,58.70
2023-04-21T19:49:24.737Z,60.92
2023-04-21T19:51:51.953Z,57.28
2023-04-21T19:54:19.280Z,64.15
2023-04-21T19:56:46.857Z,54.72
2023-04-21T19:59:14.261Z,58.05
2023-04-21T20:01:41.621Z,63.40
2023-04-21T20:04:11.894Z,62.92
2023-04-21T20:06:39.996Z,61.67
2023-04-21T20:09:07.799Z,55.88
2023-04-21T20:11:35.530Z,54.10
2023-04-21T20:14:03.187Z,62.40
2023-04-21T20:16:31.497Z,60.55
2023-04-21T20:18:59.060Z,54.15
2023-04-21T20:21:27.231Z,44.58
2023-04-21T20:23:54.600Z,50.13
2023-04-21T20:26:22.199Z,49.10
2023-04-21T20:28:49.555Z,55.22
2023-04-21T20:31:18.679Z,52.00
2023-04-21T20:33:46.076Z,44.28
2023-04-21T20:36:13.203Z,45.05
2023-04-21T20:38:41.661Z,51.25
2023-04-21T20:41:09.482Z,45.55
2023-04-21T20:43:36.507Z,44.58
2023-04-21T20:46:04.205Z,44.10
2023-04-21T20:48:31.286Z,43.67
2023-04-21T20:50:58.644Z,45.05
2023-04-21T20:53:26.802Z,38.20
2023-04-21T20:55:53.857Z,40.22
2023-04-21T20:58:24.662Z,43.97
2023-04-21T21:00:51.946Z,44.20
2023-04-21T21:03:19.847Z,43.22
2023-04-21T21:05:47.410Z,40.47
2023-04-21T21:08:19.553Z,41.22
2023-04-21T21:10:46.907Z,38.45
2023-04-21T21:13:14.155Z,32.08
2023-04-21T21:15:41.739Z,34.63
2023-04-21T21:18:09.120Z,40.92
2023-04-21T21:20:36.606Z,37.05
2023-04-21T21:23:03.932Z,42.00
2023-04-21T21:25:31.515Z,43.15
2023-04-21T21:28:02.147Z,40.40
2023-04-21T21:30:29.305Z,33.17
2023-04-21T21:32:56.802Z,34.88
2023-04-21T21:35:23.931Z,35.70
2023-04-21T21:37:51.225Z,34.88
2023-04-21T21:40:18.562Z,35.67
2023-04-21T21:42:46.291Z,38.63
2023-04-21T21:45:13.414Z,35.20
2023-04-21T21:47:43.159Z,28.27
2023-04-21T21:50:13.136Z,32.70
2023-04-21T21:52:40.875Z,31.25
2023-04-21T21:55:08.631Z,31.98
2023-04-21T21:57:36.727Z,56.33
2023-04-21T22:00:08.477Z,34.78
2023-04-21T22:02:35.884Z,40.40
2023-04-21T22:05:05.817Z,54.22
2023-04-21T22:07:32.918Z,43.13
2023-04-21T22:10:00.294Z,48.15
2023-04-21T22:12:27.422Z,43.65
2023-04-21T22:14:57.258Z,40.05
2023-04-21T22:17:25.127Z,46.10
2023-04-21T22:19:53.499Z,44.85
2023-04-21T22:22:20.685Z,57.28
2023-04-21T22:24:50.414Z,60.08
2023-04-21T22:27:17.810Z,62.88
2023-04-21T22:29:44.748Z,49.42
2023-04-21T22:32:12.168Z,57.00
2023-04-21T22:34:39.207Z,48.25
2023-04-21T22:37:06.571Z,53.65
2023-04-21T22:39:34.089Z,51.92
2023-04-21T22:42:02.278Z,46.85
2023-04-21T22:44:29.951Z,42.15
2023-04-21T22:46:57.256Z,40.35
2023-04-21T22:49:24.705Z,38.22
2023-04-21T22:51:52.130Z,43.45
2023-04-21T22:54:19.057Z,46.17
2023-04-21T22:56:46.296Z,41.50
2023-04-21T22:59:13.363Z,43.15
2023-04-21T23:01:40.719Z,43.85
2023-04-21T23:04:08.626Z,45.35
2023-04-21T23:06:35.782Z,39.97
2023-04-21T23:09:03.836Z,39.90
2023-04-21T23:11:31.522Z,55.00
2023-04-21T23:13:59.255Z,49.38
2023-04-21T23:16:26.510Z,49.40
2023-04-21T23:18:54.012Z,43.03
2023-04-21T23:21:21.410Z,44.05
2023-04-21T23:23:49.195Z,43.63
2023-04-21T23:26:16.772Z,42.08
2023-04-21T23:28:43.861Z,46.15
2023-04-21T23:31:11.248Z,65.70
2023-04-21T23:33:38.581Z,60.13
2023-04-21T23:36:06.329Z,53.22
2023-04-21T23:38:33.409Z,43.22
2023-04-21T23:41:00.822Z,41.95
2023-04-21T23:43:28.710Z,42.90
2023-04-21T23:45:55.737Z,41.60
2023-04-21T23:48:23.145Z,45.38
2023-04-21T23:50:50.389Z,36.67
2023-04-21T23:53:17.770Z,88.05
2023-04-21T23:55:45.850Z,72.20
2023-04-21T23:58:13.510Z,65.43
